sensor_id;sensor_type;location;lat;lon;timestamp;temperature;humidity
67862;DHT22;54665;51.462;6.698;2022-12-11T00:01:53;-0.05;95.42
67862;DHT22;54665;51.462;6.698;2022-12-11T00:04:18;-0.03;95.31
67862;DHT22;54665;51.462;6.698;2022-12-11T00:06:44;-0.02;95.41
67862;DHT22;54665;51.462;6.698;2022-12-11T00:09:09;-0.01;95.35
67862;DHT22;54665;51.462;6.698;2022-12-11T00:11:35;-0.05;95.17
67862;DHT22;54665;51.462;6.698;2022-12-11T00:14:01;-0.02;95.07
67862;DHT22;54665;51.462;6.698;2022-12-11T00:16:27;-0.06;94.86
67862;DHT22;54665;51.462;6.698;2022-12-11T00:18:52;-0.09;95.01
67862;DHT22;54665;51.462;6.698;2022-12-11T00:21:18;-0.07;95.10
67862;DHT22;54665;51.462;6.698;2022-12-11T00:23:43;-0.06;95.19
67862;DHT22;54665;51.462;6.698;2022-12-11T00:26:12;-0.10;95.27
67862;DHT22;54665;51.462;6.698;2022-12-11T00:28:38;-0.07;95.41
67862;DHT22;54665;51.462;6.698;2022-12-11T00:31:05;-0.09;95.46
67862;DHT22;54665;51.462;6.698;2022-12-11T00:33:31;-0.06;95.47
67862;DHT22;54665;51.462;6.698;2022-12-11T00:35:56;-0.05;95.44
67862;DHT22;54665;51.462;6.698;2022-12-11T00:38:22;-0.06;95.30
67862;DHT22;54665;51.462;6.698;2022-12-11T00:40:48;-0.06;95.28
67862;DHT22;54665;51.462;6.698;2022-12-11T00:43:13;-0.03;95.09
67862;DHT22;54665;51.462;6.698;2022-12-11T00:45:42;-0.02;95.15
67862;DHT22;54665;51.462;6.698;2022-12-11T00:48:09;-0.07;95.05
67862;DHT22;54665;51.462;6.698;2022-12-11T00:50:36;-0.05;94.99
67862;DHT22;54665;51.462;6.698;2022-12-11T00:53:02;-0.03;94.81
67862;DHT22;54665;51.462;6.698;2022-12-11T00:55:28;-0.06;94.77
67862;DHT22;54665;51.462;6.698;2022-12-11T00:57:55;-0.05;94.65
67862;DHT22;54665;51.462;6.698;2022-12-11T01:00:21;-0.05;94.69
67862;DHT22;54665;51.462;6.698;2022-12-11T01:02:50;-0.01;94.64
67862;DHT22;54665;51.462;6.698;2022-12-11T01:05:15;-0.01;94.66
67862;DHT22;54665;51.462;6.698;2022-12-11T01:07:41;-0.02;94.46
67862;DHT22;54665;51.462;6.698;2022-12-11T01:10:07;0.02;94.35
67862;DHT22;54665;51.462;6.698;2022-12-11T01:12:56;-0.01;94.40
67862;DHT22;54665;51.462;6.698;2022-12-11T01:15:25;-0.06;94.27
67862;DHT22;54665;51.462;6.698;2022-12-11T01:17:50;-0.03;94.46
67862;DHT22;54665;51.462;6.698;2022-12-11T01:20:17;-0.06;94.39
67862;DHT22;54665;51.462;6.698;2022-12-11T01:22:43;-0.02;94.44
67862;DHT22;54665;51.462;6.698;2022-12-11T01:25:08;0.01;94.39
67862;DHT22;54665;51.462;6.698;2022-12-11T01:27:35;0.05;94.33
67862;DHT22;54665;51.462;6.698;2022-12-11T01:30:01;-0.02;94.29
67862;DHT22;54665;51.462;6.698;2022-12-11T01:32:27;-0.03;94.18
67862;DHT22;54665;51.462;6.698;2022-12-11T01:34:53;0.02;94.32
67862;DHT22;54665;51.462;6.698;2022-12-11T01:37:19;-0.03;94.42
67862;DHT22;54665;51.462;6.698;2022-12-11T01:39:45;0.01;94.49
67862;DHT22;54665;51.462;6.698;2022-12-11T01:42:16;-0.02;94.64
67862;DHT22;54665;51.462;6.698;2022-12-11T01:47:07;-0.02;94.85
67862;DHT22;54665;51.462;6.698;2022-12-11T01:49:33;-0.01;94.81
67862;DHT22;54665;51.462;6.698;2022-12-11T01:52:05;0.01;94.65
67862;DHT22;54665;51.462;6.698;2022-12-11T01:54:33;0.01;94.48
67862;DHT22;54665;51.462;6.698;2022-12-11T01:57:02;-0.01;94.54
67862;DHT22;54665;51.462;6.698;2022-12-11T01:59:30;-0.03;94.54
67862;DHT22;54665;51.462;6.698;2022-12-11T02:02:02;-0.01;94.69
67862;DHT22;54665;51.462;6.698;2022-12-11T02:04:30;0.04;94.49
67862;DHT22;54665;51.462;6.698;2022-12-11T02:06:56;-0.01;94.21
67862;DHT22;54665;51.462;6.698;2022-12-11T02:09:26;0.02;94.15
67862;DHT22;54665;51.462;6.698;2022-12-11T02:11:59;0.02;94.31
67862;DHT22;54665;51.462;6.698;2022-12-11T02:14:57;0.06;94.29
67862;DHT22;54665;51.462;6.698;2022-12-11T02:17:40;0.04;94.19
67862;DHT22;54665;51.462;6.698;2022-12-11T02:20:17;0.02;94.17
67862;DHT22;54665;51.462;6.698;2022-12-11T02:25:51;0.02;94.40
67862;DHT22;54665;51.462;6.698;2022-12-11T02:30:56;0.06;94.46
67862;DHT22;54665;51.462;6.698;2022-12-11T02:33:32;0.05;94.30
67862;DHT22;54665;51.462;6.698;2022-12-11T02:35:59;0.04;94.37
67862;DHT22;54665;51.462;6.698;2022-12-11T02:38:31;0.05;94.52
67862;DHT22;54665;51.462;6.698;2022-12-11T02:40:59;0.05;94.56
67862;DHT22;54665;51.462;6.698;2022-12-11T02:43:26;0.11;94.58
67862;DHT22;54665;51.462;6.698;2022-12-11T02:45:52;0.09;94.49
67862;DHT22;54665;51.462;6.698;2022-12-11T02:48:18;0.11;94.36
67862;DHT22;54665;51.462;6.698;2022-12-11T02:50:46;0.15;94.34
67862;DHT22;54665;51.462;6.698;2022-12-11T02:53:15;0.14;94.35
67862;DHT22;54665;51.462;6.698;2022-12-11T02:55:43;0.16;94.25
67862;DHT22;54665;51.462;6.698;2022-12-11T02:58:17;0.19;94.19
67862;DHT22;54665;51.462;6.698;2022-12-11T03:00:44;0.15;94.26
67862;DHT22;54665;51.462;6.698;2022-12-11T03:03:11;0.15;94.19
67862;DHT22;54665;51.462;6.698;2022-12-11T03:05:37;0.18;94.34
67862;DHT22;54665;51.462;6.698;2022-12-11T03:08:02;0.21;94.22
67862;DHT22;54665;51.462;6.698;2022-12-11T03:10:28;0.19;94.02
67862;DHT22;54665;51.462;6.698;2022-12-11T03:12:54;0.22;94.16
67862;DHT22;54665;51.462;6.698;2022-12-11T03:15:32;0.25;94.21
67862;DHT22;54665;51.462;6.698;2022-12-11T03:18:05;0.28;94.22
67862;DHT22;54665;51.462;6.698;2022-12-11T03:20:42;0.26;94.12
67862;DHT22;54665;51.462;6.698;2022-12-11T03:23:19;0.28;94.07
67862;DHT22;54665;51.462;6.698;2022-12-11T03:25:56;0.29;94.10
67862;DHT22;54665;51.462;6.698;2022-12-11T03:28:37;0.30;93.99
67862;DHT22;54665;51.462;6.698;2022-12-11T03:31:08;0.30;93.96
67862;DHT22;54665;51.462;6.698;2022-12-11T03:33:39;0.29;93.99
67862;DHT22;54665;51.462;6.698;2022-12-11T03:36:12;0.33;94.06
67862;DHT22;54665;51.462;6.698;2022-12-11T03:38:55;0.33;93.87
67862;DHT22;54665;51.462;6.698;2022-12-11T03:41:24;0.35;93.80
67862;DHT22;54665;51.462;6.698;2022-12-11T03:43:53;0.32;93.94
67862;DHT22;54665;51.462;6.698;2022-12-11T03:46:22;0.38;93.88
67862;DHT22;54665;51.462;6.698;2022-12-11T03:48:48;0.36;93.85
67862;DHT22;54665;51.462;6.698;2022-12-11T03:51:15;0.36;93.97
67862;DHT22;54665;51.462;6.698;2022-12-11T03:53:42;0.39;94.04
67862;DHT22;54665;51.462;6.698;2022-12-11T03:56:09;0.39;94.01
67862;DHT22;54665;51.462;6.698;2022-12-11T03:58:35;0.42;93.96
67862;DHT22;54665;51.462;6.698;2022-12-11T04:01:01;0.41;93.93
67862;DHT22;54665;51.462;6.698;2022-12-11T04:03:26;0.42;94.00
67862;DHT22;54665;51.462;6.698;2022-12-11T04:05:55;0.43;93.95
67862;DHT22;54665;51.462;6.698;2022-12-11T04:08:20;0.45;93.97
67862;DHT22;54665;51.462;6.698;2022-12-11T04:10:47;0.45;93.95
67862;DHT22;54665;51.462;6.698;2022-12-11T04:13:13;0.48;93.90
67862;DHT22;54665;51.462;6.698;2022-12-11T04:15:39;0.45;93.79
67862;DHT22;54665;51.462;6.698;2022-12-11T04:18:06;0.49;93.71
67862;DHT22;54665;51.462;6.698;2022-12-11T04:20:54;0.43;93.80
67862;DHT22;54665;51.462;6.698;2022-12-11T04:23:39;0.45;93.78
67862;DHT22;54665;51.462;6.698;2022-12-11T04:26:23;0.48;93.81
67862;DHT22;54665;51.462;6.698;2022-12-11T04:28:48;0.48;93.55
67862;DHT22;54665;51.462;6.698;2022-12-11T04:31:17;0.46;93.66
67862;DHT22;54665;51.462;6.698;2022-12-11T04:33:43;0.46;93.51
67862;DHT22;54665;51.462;6.698;2022-12-11T04:36:09;0.46;93.61
67862;DHT22;54665;51.462;6.698;2022-12-11T04:38:35;0.48;93.52
67862;DHT22;54665;51.462;6.698;2022-12-11T04:41:04;0.49;93.54
67862;DHT22;54665;51.462;6.698;2022-12-11T04:43:29;0.52;93.47
67862;DHT22;54665;51.462;6.698;2022-12-11T04:48:31;0.52;93.41
67862;DHT22;54665;51.462;6.698;2022-12-11T04:50:56;0.55;93.09
67862;DHT22;54665;51.462;6.698;2022-12-11T04:53:22;0.50;93.11
67862;DHT22;54665;51.462;6.698;2022-12-11T04:55:48;0.52;93.05
67862;DHT22;54665;51.462;6.698;2022-12-11T04:58:13;0.57;93.13
67862;DHT22;54665;51.462;6.698;2022-12-11T05:00:40;0.53;93.07
67862;DHT22;54665;51.462;6.698;2022-12-11T05:03:05;0.56;93.21
67862;DHT22;54665;51.462;6.698;2022-12-11T05:05:31;0.57;92.99
67862;DHT22;54665;51.462;6.698;2022-12-11T05:07:56;0.59;92.99
67862;DHT22;54665;51.462;6.698;2022-12-11T05:10:21;0.56;93.00
67862;DHT22;54665;51.462;6.698;2022-12-11T05:12:47;0.53;92.86
67862;DHT22;54665;51.462;6.698;2022-12-11T05:15:12;0.55;92.73
67862;DHT22;54665;51.462;6.698;2022-12-11T05:17:37;0.55;92.78
67862;DHT22;54665;51.462;6.698;2022-12-11T05:20:03;0.56;92.75
67862;DHT22;54665;51.462;6.698;2022-12-11T05:22:29;0.56;92.67
67862;DHT22;54665;51.462;6.698;2022-12-11T05:24:55;0.55;92.70
67862;DHT22;54665;51.462;6.698;2022-12-11T05:27:20;0.56;92.62
67862;DHT22;54665;51.462;6.698;2022-12-11T05:29:46;0.57;92.53
67862;DHT22;54665;51.462;6.698;2022-12-11T05:32:11;0.57;92.48
67862;DHT22;54665;51.462;6.698;2022-12-11T05:34:37;0.57;92.49
67862;DHT22;54665;51.462;6.698;2022-12-11T05:37:02;0.57;92.26
67862;DHT22;54665;51.462;6.698;2022-12-11T05:39:28;0.59;92.16
67862;DHT22;54665;51.462;6.698;2022-12-11T05:41:54;0.59;92.28
67862;DHT22;54665;51.462;6.698;2022-12-11T05:44:19;0.57;92.08
67862;DHT22;54665;51.462;6.698;2022-12-11T05:46:45;0.56;92.13
67862;DHT22;54665;51.462;6.698;2022-12-11T05:49:10;0.59;92.15
67862;DHT22;54665;51.462;6.698;2022-12-11T05:51:36;0.59;91.92
67862;DHT22;54665;51.462;6.698;2022-12-11T05:54:03;0.57;92.05
67862;DHT22;54665;51.462;6.698;2022-12-11T05:56:31;0.57;91.98
67862;DHT22;54665;51.462;6.698;2022-12-11T05:58:58;0.57;92.16
67862;DHT22;54665;51.462;6.698;2022-12-11T06:01:36;0.52;92.31
67862;DHT22;54665;51.462;6.698;2022-12-11T06:04:03;0.53;92.34
67862;DHT22;54665;51.462;6.698;2022-12-11T06:06:29;0.55;92.37
67862;DHT22;54665;51.462;6.698;2022-12-11T06:08:56;0.53;92.38
67862;DHT22;54665;51.462;6.698;2022-12-11T06:11:22;0.53;92.50
67862;DHT22;54665;51.462;6.698;2022-12-11T06:13:48;0.52;92.17
67862;DHT22;54665;51.462;6.698;2022-12-11T06:16:14;0.52;92.28
67862;DHT22;54665;51.462;6.698;2022-12-11T06:18:42;0.56;92.33
67862;DHT22;54665;51.462;6.698;2022-12-11T06:21:12;0.52;92.15
67862;DHT22;54665;51.462;6.698;2022-12-11T06:23:38;0.53;92.30
67862;DHT22;54665;51.462;6.698;2022-12-11T06:26:04;0.52;92.33
67862;DHT22;54665;51.462;6.698;2022-12-11T06:28:29;0.53;92.49
67862;DHT22;54665;51.462;6.698;2022-12-11T06:30:57;0.57;92.61
67862;DHT22;54665;51.462;6.698;2022-12-11T06:33:23;0.59;92.46
67862;DHT22;54665;51.462;6.698;2022-12-11T06:35:48;0.56;92.60
67862;DHT22;54665;51.462;6.698;2022-12-11T06:38:13;0.55;92.58
67862;DHT22;54665;51.462;6.698;2022-12-11T06:40:39;0.62;92.65
67862;DHT22;54665;51.462;6.698;2022-12-11T06:43:04;0.60;92.40
67862;DHT22;54665;51.462;6.698;2022-12-11T06:45:30;0.57;91.95
67862;DHT22;54665;51.462;6.698;2022-12-11T06:47:55;0.56;92.10
67862;DHT22;54665;51.462;6.698;2022-12-11T06:50:21;0.56;92.13
67862;DHT22;54665;51.462;6.698;2022-12-11T06:52:46;0.56;92.37
67862;DHT22;54665;51.462;6.698;2022-12-11T06:55:11;0.59;92.44
67862;DHT22;54665;51.462;6.698;2022-12-11T06:57:37;0.56;92.32
67862;DHT22;54665;51.462;6.698;2022-12-11T07:00:03;0.63;91.83
67862;DHT22;54665;51.462;6.698;2022-12-11T07:02:28;0.60;91.89
67862;DHT22;54665;51.462;6.698;2022-12-11T07:04:53;0.59;91.99
67862;DHT22;54665;51.462;6.698;2022-12-11T07:07:19;0.60;92.12
67862;DHT22;54665;51.462;6.698;2022-12-11T07:09:44;0.59;92.04
67862;DHT22;54665;51.462;6.698;2022-12-11T07:12:10;0.57;92.02
67862;DHT22;54665;51.462;6.698;2022-12-11T07:14:35;0.59;92.16
67862;DHT22;54665;51.462;6.698;2022-12-11T07:17:01;0.60;92.07
67862;DHT22;54665;51.462;6.698;2022-12-11T07:19:26;0.53;92.01
67862;DHT22;54665;51.462;6.698;2022-12-11T07:21:51;0.52;92.00
67862;DHT22;54665;51.462;6.698;2022-12-11T07:24:17;0.50;92.02
67862;DHT22;54665;51.462;6.698;2022-12-11T07:26:43;0.53;91.89
67862;DHT22;54665;51.462;6.698;2022-12-11T07:29:08;0.53;91.86
67862;DHT22;54665;51.462;6.698;2022-12-11T07:31:33;0.55;91.80
67862;DHT22;54665;51.462;6.698;2022-12-11T07:34:04;0.53;92.04
67862;DHT22;54665;51.462;6.698;2022-12-11T07:36:31;0.55;92.04
67862;DHT22;54665;51.462;6.698;2022-12-11T07:38:58;0.56;91.85
67862;DHT22;54665;51.462;6.698;2022-12-11T07:41:24;0.53;91.68
67862;DHT22;54665;51.462;6.698;2022-12-11T07:43:52;0.53;91.61
67862;DHT22;54665;51.462;6.698;2022-12-11T07:46:21;0.55;91.47
67862;DHT22;54665;51.462;6.698;2022-12-11T07:48:47;0.52;91.25
67862;DHT22;54665;51.462;6.698;2022-12-11T07:51:19;0.59;91.33
67862;DHT22;54665;51.462;6.698;2022-12-11T07:53:48;0.60;91.33
67862;DHT22;54665;51.462;6.698;2022-12-11T07:56:15;0.59;91.33
67862;DHT22;54665;51.462;6.698;2022-12-11T07:58:40;0.56;91.13
67862;DHT22;54665;51.462;6.698;2022-12-11T08:01:14;0.57;91.41
67862;DHT22;54665;51.462;6.698;2022-12-11T08:03:40;0.55;91.55
67862;DHT22;54665;51.462;6.698;2022-12-11T08:06:07;0.59;91.46
67862;DHT22;54665;51.462;6.698;2022-12-11T08:08:32;0.63;91.37
67862;DHT22;54665;51.462;6.698;2022-12-11T08:11:04;0.56;90.90
67862;DHT22;54665;51.462;6.698;2022-12-11T08:13:30;0.60;90.98
67862;DHT22;54665;51.462;6.698;2022-12-11T08:15:56;0.65;91.15
67862;DHT22;54665;51.462;6.698;2022-12-11T08:18:21;0.65;91.19
67862;DHT22;54665;51.462;6.698;2022-12-11T08:20:47;0.65;91.30
67862;DHT22;54665;51.462;6.698;2022-12-11T08:23:12;0.69;91.08
67862;DHT22;54665;51.462;6.698;2022-12-11T08:25:38;0.73;90.79
67862;DHT22;54665;51.462;6.698;2022-12-11T08:28:03;0.73;90.50
67862;DHT22;54665;51.462;6.698;2022-12-11T08:30:30;0.80;90.42
67862;DHT22;54665;51.462;6.698;2022-12-11T08:32:56;0.80;89.40
67862;DHT22;54665;51.462;6.698;2022-12-11T08:35:21;0.80;89.54
67862;DHT22;54665;51.462;6.698;2022-12-11T08:37:47;0.79;89.20
67862;DHT22;54665;51.462;6.698;2022-12-11T08:40:12;0.80;89.56
67862;DHT22;54665;51.462;6.698;2022-12-11T08:42:38;0.81;89.53
67862;DHT22;54665;51.462;6.698;2022-12-11T08:45:04;0.81;89.60
67862;DHT22;54665;51.462;6.698;2022-12-11T08:47:30;0.81;89.41
67862;DHT22;54665;51.462;6.698;2022-12-11T08:49:55;0.83;89.47
67862;DHT22;54665;51.462;6.698;2022-12-11T08:52:21;0.84;89.68
67862;DHT22;54665;51.462;6.698;2022-12-11T08:54:47;0.86;89.35
67862;DHT22;54665;51.462;6.698;2022-12-11T08:57:12;0.83;89.05
67862;DHT22;54665;51.462;6.698;2022-12-11T08:59:39;0.83;89.28
67862;DHT22;54665;51.462;6.698;2022-12-11T09:02:05;0.80;88.66
67862;DHT22;54665;51.462;6.698;2022-12-11T09:04:30;0.77;88.81
67862;DHT22;54665;51.462;6.698;2022-12-11T09:06:55;0.76;88.92
67862;DHT22;54665;51.462;6.698;2022-12-11T09:09:21;0.79;89.06
67862;DHT22;54665;51.462;6.698;2022-12-11T09:11:46;0.83;88.67
67862;DHT22;54665;51.462;6.698;2022-12-11T09:14:12;0.81;89.05
67862;DHT22;54665;51.462;6.698;2022-12-11T09:16:38;0.83;88.94
67862;DHT22;54665;51.462;6.698;2022-12-11T09:19:10;0.84;88.95
67862;DHT22;54665;51.462;6.698;2022-12-11T09:21:37;0.88;88.84
67862;DHT22;54665;51.462;6.698;2022-12-11T09:24:03;0.87;87.96
67862;DHT22;54665;51.462;6.698;2022-12-11T09:26:29;0.93;87.67
67862;DHT22;54665;51.462;6.698;2022-12-11T09:28:55;0.87;87.71
67862;DHT22;54665;51.462;6.698;2022-12-11T09:31:25;0.97;88.07
67862;DHT22;54665;51.462;6.698;2022-12-11T09:33:53;0.98;87.93
67862;DHT22;54665;51.462;6.698;2022-12-11T09:36:19;1.05;87.78
67862;DHT22;54665;51.462;6.698;2022-12-11T09:38:45;1.09;87.65
67862;DHT22;54665;51.462;6.698;2022-12-11T09:46:33;1.11;86.72
67862;DHT22;54665;51.462;6.698;2022-12-11T09:49:01;1.14;86.78
67862;DHT22;54665;51.462;6.698;2022-12-11T09:51:35;1.20;86.84
67862;DHT22;54665;51.462;6.698;2022-12-11T09:54:04;1.31;86.91
67862;DHT22;54665;51.462;6.698;2022-12-11T09:56:38;1.38;86.76
67862;DHT22;54665;51.462;6.698;2022-12-11T09:59:25;1.42;86.43
67862;DHT22;54665;51.462;6.698;2022-12-11T10:02:23;1.32;86.05
67862;DHT22;54665;51.462;6.698;2022-12-11T10:05:03;1.30;85.79
67862;DHT22;54665;51.462;6.698;2022-12-11T10:07:46;1.34;85.22
67862;DHT22;54665;51.462;6.698;2022-12-11T10:18:39;1.21;84.69
67862;DHT22;54665;51.462;6.698;2022-12-11T10:21:05;1.11;84.68
67862;DHT22;54665;51.462;6.698;2022-12-11T10:23:36;1.13;85.05
67862;DHT22;54665;51.462;6.698;2022-12-11T10:26:17;1.17;84.77
67862;DHT22;54665;51.462;6.698;2022-12-11T10:28:43;1.14;84.56
67862;DHT22;54665;51.462;6.698;2022-12-11T10:33:58;1.18;84.13
67862;DHT22;54665;51.462;6.698;2022-12-11T10:36:30;1.27;84.54
67862;DHT22;54665;51.462;6.698;2022-12-11T10:38:56;1.32;83.97
67862;DHT22;54665;51.462;6.698;2022-12-11T10:41:31;1.48;83.67
67862;DHT22;54665;51.462;6.698;2022-12-11T10:43:59;1.44;83.13
67862;DHT22;54665;51.462;6.698;2022-12-11T10:46:27;1.42;83.27
67862;DHT22;54665;51.462;6.698;2022-12-11T10:48:58;1.47;83.85
67862;DHT22;54665;51.462;6.698;2022-12-11T10:51:33;1.52;83.76
67862;DHT22;54665;51.462;6.698;2022-12-11T10:54:05;1.47;83.17
67862;DHT22;54665;51.462;6.698;2022-12-11T10:56:32;1.47;83.38
67862;DHT22;54665;51.462;6.698;2022-12-11T10:58:59;1.52;83.56
67862;DHT22;54665;51.462;6.698;2022-12-11T11:01:30;1.49;83.55
67862;DHT22;54665;51.462;6.698;2022-12-11T11:06:22;1.51;84.06
67862;DHT22;54665;51.462;6.698;2022-12-11T11:08:53;1.54;83.70
67862;DHT22;54665;51.462;6.698;2022-12-11T11:11:31;1.51;83.49
67862;DHT22;54665;51.462;6.698;2022-12-11T11:14:12;1.39;83.63
67862;DHT22;54665;51.462;6.698;2022-12-11T11:16:39;1.39;83.34
67862;DHT22;54665;51.462;6.698;2022-12-11T11:19:06;1.39;83.66
67862;DHT22;54665;51.462;6.698;2022-12-11T11:21:50;1.42;83.29
67862;DHT22;54665;51.462;6.698;2022-12-11T11:27:59;1.45;83.65
67862;DHT22;54665;51.462;6.698;2022-12-11T11:30:25;1.59;83.58
67862;DHT22;54665;51.462;6.698;2022-12-11T11:32:58;1.75;83.24
67862;DHT22;54665;51.462;6.698;2022-12-11T11:35:28;1.73;82.67
67862;DHT22;54665;51.462;6.698;2022-12-11T11:38:17;1.70;82.19
67862;DHT22;54665;51.462;6.698;2022-12-11T11:40:52;1.75;82.91
67862;DHT22;54665;51.462;6.698;2022-12-11T11:43:43;1.70;83.42
67862;DHT22;54665;51.462;6.698;2022-12-11T11:48:57;1.48;82.67
67862;DHT22;54665;51.462;6.698;2022-12-11T11:51:37;1.62;83.00
67862;DHT22;54665;51.462;6.698;2022-12-11T11:54:19;1.58;82.97
67862;DHT22;54665;51.462;6.698;2022-12-11T11:56:45;1.48;83.46
67862;DHT22;54665;51.462;6.698;2022-12-11T11:59:25;1.38;83.39
67862;DHT22;54665;51.462;6.698;2022-12-11T12:01:54;1.48;83.24
67862;DHT22;54665;51.462;6.698;2022-12-11T12:04:20;1.54;82.82
67862;DHT22;54665;51.462;6.698;2022-12-11T12:07:10;1.48;83.35
67862;DHT22;54665;51.462;6.698;2022-12-11T12:09:59;1.66;82.85
67862;DHT22;54665;51.462;6.698;2022-12-11T12:12:42;1.75;83.41
67862;DHT22;54665;51.462;6.698;2022-12-11T12:15:19;1.47;82.32
67862;DHT22;54665;51.462;6.698;2022-12-11T12:18:00;1.51;83.26
67862;DHT22;54665;51.462;6.698;2022-12-11T12:20:42;1.68;83.56
67862;DHT22;54665;51.462;6.698;2022-12-11T12:28:21;1.47;82.97
67862;DHT22;54665;51.462;6.698;2022-12-11T12:33:56;1.60;82.46
67862;DHT22;54665;51.462;6.698;2022-12-11T12:41:54;1.96;81.44
67862;DHT22;54665;51.462;6.698;2022-12-11T12:44:23;1.86;81.72
67862;DHT22;54665;51.462;6.698;2022-12-11T12:46:59;1.73;82.28
67862;DHT22;54665;51.462;6.698;2022-12-11T12:52:10;1.69;82.79
67862;DHT22;54665;51.462;6.698;2022-12-11T12:54:38;1.68;82.66
67862;DHT22;54665;51.462;6.698;2022-12-11T12:57:04;1.78;82.85
67862;DHT22;54665;51.462;6.698;2022-12-11T12:59:30;1.80;81.78
67862;DHT22;54665;51.462;6.698;2022-12-11T13:01:58;1.73;81.29
67862;DHT22;54665;51.462;6.698;2022-12-11T13:04:40;1.63;81.53
67862;DHT22;54665;51.462;6.698;2022-12-11T13:07:21;1.69;81.94
67862;DHT22;54665;51.462;6.698;2022-12-11T13:10:03;1.75;82.25
67862;DHT22;54665;51.462;6.698;2022-12-11T13:12:44;1.75;81.51
67862;DHT22;54665;51.462;6.698;2022-12-11T13:15:30;1.52;81.49
67862;DHT22;54665;51.462;6.698;2022-12-11T13:17:56;1.45;82.21
67862;DHT22;54665;51.462;6.698;2022-12-11T13:20:25;1.44;83.05
67862;DHT22;54665;51.462;6.698;2022-12-11T13:25:44;1.39;83.20
67862;DHT22;54665;51.462;6.698;2022-12-11T13:28:29;1.51;83.13
67862;DHT22;54665;51.462;6.698;2022-12-11T13:33:31;1.54;81.90
67862;DHT22;54665;51.462;6.698;2022-12-11T13:38:51;1.48;82.80
67862;DHT22;54665;51.462;6.698;2022-12-11T13:41:18;1.38;82.71
67862;DHT22;54665;51.462;6.698;2022-12-11T13:43:46;1.35;82.77
67862;DHT22;54665;51.462;6.698;2022-12-11T13:46:13;1.37;82.90
67862;DHT22;54665;51.462;6.698;2022-12-11T13:48:48;1.20;82.60
67862;DHT22;54665;51.462;6.698;2022-12-11T13:51:17;1.20;82.93
67862;DHT22;54665;51.462;6.698;2022-12-11T13:53:43;1.27;83.37
67862;DHT22;54665;51.462;6.698;2022-12-11T13:56:18;1.18;82.86
67862;DHT22;54665;51.462;6.698;2022-12-11T13:58:44;1.08;82.49
67862;DHT22;54665;51.462;6.698;2022-12-11T14:01:16;1.08;82.82
67862;DHT22;54665;51.462;6.698;2022-12-11T14:04:07;1.09;82.71
67862;DHT22;54665;51.462;6.698;2022-12-11T14:06:34;1.03;82.35
67862;DHT22;54665;51.462;6.698;2022-12-11T14:09:02;0.98;83.39
67862;DHT22;54665;51.462;6.698;2022-12-11T14:11:40;0.88;83.04
67862;DHT22;54665;51.462;6.698;2022-12-11T14:14:30;0.96;82.97
67862;DHT22;54665;51.462;6.698;2022-12-11T14:16:59;0.88;83.01
67862;DHT22;54665;51.462;6.698;2022-12-11T14:19:24;0.91;83.96
67862;DHT22;54665;51.462;6.698;2022-12-11T14:22:01;0.98;83.52
67862;DHT22;54665;51.462;6.698;2022-12-11T14:24:28;0.91;82.45
67862;DHT22;54665;51.462;6.698;2022-12-11T14:26:54;0.90;82.48
67862;DHT22;54665;51.462;6.698;2022-12-11T14:29:31;0.87;82.45
67862;DHT22;54665;51.462;6.698;2022-12-11T14:32:03;0.84;82.64
67862;DHT22;54665;51.462;6.698;2022-12-11T14:34:42;0.84;83.06
67862;DHT22;54665;51.462;6.698;2022-12-11T14:37:09;0.86;83.38
67862;DHT22;54665;51.462;6.698;2022-12-11T14:40:00;0.84;83.10
67862;DHT22;54665;51.462;6.698;2022-12-11T14:42:33;0.77;82.68
67862;DHT22;54665;51.462;6.698;2022-12-11T14:45:07;0.75;83.01
67862;DHT22;54665;51.462;6.698;2022-12-11T14:47:39;0.72;83.07
67862;DHT22;54665;51.462;6.698;2022-12-11T14:50:18;0.69;82.61
67862;DHT22;54665;51.462;6.698;2022-12-11T14:52:47;0.69;83.18
67862;DHT22;54665;51.462;6.698;2022-12-11T14:55:19;0.70;82.98
67862;DHT22;54665;51.462;6.698;2022-12-11T14:57:46;0.69;83.12
67862;DHT22;54665;51.462;6.698;2022-12-11T15:00:40;0.72;83.36
67862;DHT22;54665;51.462;6.698;2022-12-11T15:03:20;0.75;82.94
67862;DHT22;54665;51.462;6.698;2022-12-11T15:05:56;0.75;83.07
67862;DHT22;54665;51.462;6.698;2022-12-11T15:08:27;0.75;83.70
67862;DHT22;54665;51.462;6.698;2022-12-11T15:11:09;0.75;83.67
67862;DHT22;54665;51.462;6.698;2022-12-11T15:13:37;0.75;83.57
67862;DHT22;54665;51.462;6.698;2022-12-11T15:16:05;0.73;82.92
67862;DHT22;54665;51.462;6.698;2022-12-11T15:18:33;0.72;83.05
67862;DHT22;54665;51.462;6.698;2022-12-11T15:21:01;0.75;83.63
67862;DHT22;54665;51.462;6.698;2022-12-11T15:23:28;0.70;83.52
67862;DHT22;54665;51.462;6.698;2022-12-11T15:25:58;0.70;83.45
67862;DHT22;54665;51.462;6.698;2022-12-11T15:28:31;0.66;83.12
67862;DHT22;54665;51.462;6.698;2022-12-11T15:31:03;0.63;83.39
67862;DHT22;54665;51.462;6.698;2022-12-11T15:33:29;0.62;83.08
67862;DHT22;54665;51.462;6.698;2022-12-11T15:36:01;0.63;83.31
67862;DHT22;54665;51.462;6.698;2022-12-11T15:38:37;0.63;83.85
67862;DHT22;54665;51.462;6.698;2022-12-11T15:41:14;0.62;83.75
67862;DHT22;54665;51.462;6.698;2022-12-11T15:43:40;0.67;84.02
67862;DHT22;54665;51.462;6.698;2022-12-11T15:46:05;0.65;83.30
67862;DHT22;54665;51.462;6.698;2022-12-11T15:48:32;0.65;83.85
67862;DHT22;54665;51.462;6.698;2022-12-11T15:50:57;0.67;83.92
67862;DHT22;54665;51.462;6.698;2022-12-11T15:53:23;0.65;83.99
67862;DHT22;54665;51.462;6.698;2022-12-11T15:55:48;0.66;84.73
67862;DHT22;54665;51.462;6.698;2022-12-11T15:58:18;0.65;83.47
67862;DHT22;54665;51.462;6.698;2022-12-11T16:00:43;0.62;83.68
67862;DHT22;54665;51.462;6.698;2022-12-11T16:03:13;0.66;83.58
67862;DHT22;54665;51.462;6.698;2022-12-11T16:05:39;0.63;83.52
67862;DHT22;54665;51.462;6.698;2022-12-11T16:08:05;0.65;83.58
67862;DHT22;54665;51.462;6.698;2022-12-11T16:10:31;0.62;83.43
67862;DHT22;54665;51.462;6.698;2022-12-11T16:12:56;0.60;83.22
67862;DHT22;54665;51.462;6.698;2022-12-11T16:15:25;0.59;83.42
67862;DHT22;54665;51.462;6.698;2022-12-11T16:18:02;0.59;83.68
67862;DHT22;54665;51.462;6.698;2022-12-11T16:20:28;0.60;83.77
67862;DHT22;54665;51.462;6.698;2022-12-11T16:22:55;0.59;83.93
67862;DHT22;54665;51.462;6.698;2022-12-11T16:25:21;0.59;83.21
67862;DHT22;54665;51.462;6.698;2022-12-11T16:27:47;0.57;83.38
67862;DHT22;54665;51.462;6.698;2022-12-11T16:30:12;0.60;83.09
67862;DHT22;54665;51.462;6.698;2022-12-11T16:32:38;0.65;83.43
67862;DHT22;54665;51.462;6.698;2022-12-11T16:35:03;0.63;83.43
67862;DHT22;54665;51.462;6.698;2022-12-11T16:37:29;0.62;83.21
67862;DHT22;54665;51.462;6.698;2022-12-11T16:39:54;0.66;83.40
67862;DHT22;54665;51.462;6.698;2022-12-11T16:42:20;0.67;82.93
67862;DHT22;54665;51.462;6.698;2022-12-11T16:44:45;0.69;82.66
67862;DHT22;54665;51.462;6.698;2022-12-11T16:47:11;0.67;82.47
67862;DHT22;54665;51.462;6.698;2022-12-11T16:49:36;0.67;82.55
67862;DHT22;54665;51.462;6.698;2022-12-11T16:52:01;0.67;82.84
67862;DHT22;54665;51.462;6.698;2022-12-11T16:54:27;0.70;83.23
67862;DHT22;54665;51.462;6.698;2022-12-11T16:56:52;0.69;83.01
67862;DHT22;54665;51.462;6.698;2022-12-11T16:59:18;0.70;82.97